createdAt,value
2018-03-02T00:00:36.565Z,32.75
2018-03-02T00:03:04.020Z,33.42
2018-03-02T00:05:31.494Z,31.75
2018-03-02T00:07:58.934Z,31.30
2018-03-02T00:10:26.397Z,32.22
2018-03-02T00:12:53.849Z,30.98
2018-03-02T00:15:21.303Z,33.33
2018-03-02T00:17:49.522Z,31.40
2018-03-02T00:20:16.974Z,30.98
2018-03-02T00:22:44.400Z,33.17
2018-03-02T00:25:11.852Z,33.60
2018-03-02T00:27:39.323Z,35.13
2018-03-02T00:30:06.802Z,33.50
2018-03-02T00:32:34.275Z,32.40
2018-03-02T00:35:01.767Z,35.03
2018-03-02T00:37:29.179Z,33.92
2018-03-02T00:39:56.621Z,35.65
2018-03-02T00:42:24.104Z,34.83
2018-03-02T00:44:51.535Z,31.50
2018-03-02T00:47:19.200Z,31.80
2018-03-02T00:49:46.637Z,30.33
2018-03-02T00:52:14.087Z,32.60
2018-03-02T00:54:41.526Z,33.85
2018-03-02T00:57:08.979Z,34.72
2018-03-02T00:59:36.403Z,36.53
2018-03-02T01:02:03.860Z,36.42
2018-03-02T01:04:31.296Z,32.85
2018-03-02T01:06:58.747Z,36.55
2018-03-02T01:09:26.200Z,32.65
2018-03-02T01:11:53.641Z,34.65
2018-03-02T01:14:21.860Z,31.45
2018-03-02T01:16:49.307Z,33.08
2018-03-02T01:19:16.756Z,33.40
2018-03-02T01:21:44.224Z,34.85
2018-03-02T01:24:11.679Z,33.28
2018-03-02T01:26:39.146Z,31.73
2018-03-02T01:29:06.592Z,32.70
2018-03-02T01:31:34.048Z,33.67
2018-03-02T01:34:01.488Z,34.33
2018-03-02T01:36:29.281Z,31.83
2018-03-02T01:38:56.732Z,32.67
2018-03-02T01:41:24.189Z,34.42
2018-03-02T01:43:51.631Z,34.80
2018-03-02T01:46:19.088Z,33.00
2018-03-02T01:48:46.531Z,35.63
2018-03-02T01:51:25.730Z,33.70
2018-03-02T01:53:53.166Z,33.75
2018-03-02T01:56:20.624Z,34.33
2018-03-02T01:58:48.065Z,33.78
2018-03-02T02:01:15.514Z,34.20
2018-03-02T02:03:42.963Z,35.20
2018-03-02T02:06:10.429Z,33.40
2018-03-02T02:08:37.877Z,34.42
2018-03-02T02:11:05.319Z,35.00
2018-03-02T02:13:32.772Z,34.35
2018-03-02T02:16:00.228Z,31.30
2018-03-02T02:18:27.689Z,38.15
2018-03-02T02:20:55.138Z,36.25
2018-03-02T02:23:22.587Z,35.08
2018-03-02T02:25:50.834Z,33.90
2018-03-02T02:28:18.263Z,34.08
2018-03-02T02:30:45.704Z,33.60
2018-03-02T02:33:13.157Z,38.08
2018-03-02T02:35:40.593Z,34.90
2018-03-02T02:38:08.043Z,34.42
2018-03-02T02:40:35.481Z,36.42
2018-03-02T02:43:02.944Z,33.78
2018-03-02T02:45:30.376Z,35.30
2018-03-02T02:47:57.844Z,33.47
2018-03-02T02:50:25.275Z,36.78
2018-03-02T02:52:52.741Z,35.67
2018-03-02T02:55:20.164Z,34.80
2018-03-02T02:57:47.620Z,35.97
2018-03-02T03:00:15.070Z,36.22
2018-03-02T03:02:42.561Z,34.60
2018-03-02T03:05:09.989Z,34.30
2018-03-02T03:07:37.451Z,36.70
2018-03-02T03:10:04.901Z,35.80
2018-03-02T03:12:32.340Z,37.90
2018-03-02T03:14:59.791Z,38.25
2018-03-02T03:17:27.232Z,34.20
2018-03-02T03:19:54.690Z,41.63
2018-03-02T03:22:22.192Z,36.53
2018-03-02T03:24:49.635Z,38.13
2018-03-02T03:27:17.831Z,34.40
2018-03-02T03:29:45.291Z,37.00
2018-03-02T03:32:12.730Z,37.05
2018-03-02T03:34:40.214Z,35.63
2018-03-02T03:37:07.767Z,37.33
2018-03-02T03:39:35.223Z,35.72
2018-03-02T03:42:02.664Z,35.80
2018-03-02T03:44:30.119Z,35.17
2018-03-02T03:46:57.546Z,36.22
2018-03-02T03:49:24.995Z,39.05
2018-03-02T03:51:52.447Z,36.53
2018-03-02T03:54:19.892Z,38.38
2018-03-02T03:56:47.346Z,37.47
2018-03-02T03:59:15.322Z,39.97
2018-03-02T04:01:42.778Z,36.83
2018-03-02T04:04:10.216Z,39.47
2018-03-02T04:06:37.672Z,38.83
2018-03-02T04:09:05.128Z,37.28
2018-03-02T04:11:32.577Z,35.17
2018-03-02T04:14:00.022Z,39.13
2018-03-02T04:16:27.472Z,35.85
2018-03-02T04:18:54.942Z,35.47
2018-03-02T04:21:22.393Z,37.28
2018-03-02T04:23:49.845Z,37.97
2018-03-02T04:26:17.292Z,37.85
2018-03-02T04:28:45.508Z,35.35
2018-03-02T04:31:13.271Z,37.45
2018-03-02T04:33:40.743Z,40.15
2018-03-02T04:36:08.181Z,40.90
2018-03-02T04:38:35.628Z,39.05
2018-03-02T04:41:03.094Z,36.30
2018-03-02T04:43:30.538Z,36.25
2018-03-02T04:45:58.418Z,38.53
2018-03-02T04:48:25.855Z,36.70
2018-03-02T04:50:53.310Z,35.85
2018-03-02T04:53:20.779Z,35.80
2018-03-02T04:55:48.226Z,38.22
2018-03-02T04:58:15.692Z,34.95
2018-03-02T05:00:43.161Z,36.55
2018-03-02T05:03:10.605Z,37.38
2018-03-02T05:05:38.040Z,38.80
2018-03-02T05:08:06.249Z,38.63
2018-03-02T05:10:34.009Z,38.40
2018-03-02T05:13:01.453Z,35.65
2018-03-02T05:15:28.922Z,36.10
2018-03-02T05:17:56.392Z,39.08
2018-03-02T05:20:23.842Z,36.80
2018-03-02T05:22:51.319Z,39.17
2018-03-02T05:25:18.763Z,37.10
2018-03-02T05:27:46.219Z,36.45
2018-03-02T05:30:13.671Z,36.05
2018-03-02T05:32:41.131Z,36.45
2018-03-02T05:35:11.384Z,36.97
2018-03-02T05:37:38.814Z,36.03
2018-03-02T05:40:06.277Z,37.97
2018-03-02T05:42:33.740Z,38.85
2018-03-02T05:45:01.183Z,35.85
2018-03-02T05:47:28.639Z,38.47
2018-03-02T05:49:56.115Z,36.45
2018-03-02T05:52:23.557Z,35.20
2018-03-02T05:54:51.012Z,38.47
2018-03-02T05:57:18.475Z,37.40
2018-03-02T05:59:45.903Z,35.80
2018-03-02T06:02:13.383Z,37.40
2018-03-02T06:04:40.799Z,38.25
2018-03-02T06:07:08.253Z,36.45
2018-03-02T06:09:35.702Z,37.13
2018-03-02T06:12:03.190Z,38.92
2018-03-02T06:14:30.653Z,39.88
2018-03-02T06:16:58.416Z,38.92
2018-03-02T06:19:25.847Z,39.30
2018-03-02T06:21:54.079Z,37.42
2018-03-02T06:24:21.548Z,41.17
2018-03-02T06:26:49.223Z,39.10
2018-03-02T06:29:16.516Z,37.05
2018-03-02T06:31:43.959Z,39.45
2018-03-02T06:34:12.167Z,38.33
2018-03-02T06:36:39.625Z,32.85
2018-03-02T06:39:07.088Z,40.35
2018-03-02T06:41:34.552Z,38.75
2018-03-02T06:44:02.016Z,39.42
2018-03-02T06:46:29.464Z,39.08
2018-03-02T06:48:57.331Z,35.70
2018-03-02T06:51:24.780Z,40.00
2018-03-02T06:53:52.211Z,38.95
2018-03-02T06:56:19.818Z,44.75
2018-03-02T06:58:47.392Z,38.47
2018-03-02T07:01:14.851Z,40.63
2018-03-02T07:03:42.350Z,37.05
2018-03-02T07:06:09.823Z,44.50
2018-03-02T07:08:37.289Z,40.55
2018-03-02T07:11:04.745Z,40.55
2018-03-02T07:13:32.203Z,40.70
2018-03-02T07:15:59.670Z,39.25
2018-03-02T07:18:27.415Z,39.97
2018-03-02T07:20:54.899Z,39.53
2018-03-02T07:23:22.379Z,36.85
2018-03-02T07:25:49.832Z,40.10
2018-03-02T07:28:17.294Z,41.80
2018-03-02T07:30:44.756Z,40.10
2018-03-02T07:33:12.196Z,40.78
2018-03-02T07:35:39.644Z,35.40
2018-03-02T07:38:07.115Z,38.15
2018-03-02T07:40:34.551Z,40.90
2018-03-02T07:43:02.019Z,39.70
2018-03-02T07:45:29.475Z,38.78
2018-03-02T07:47:56.932Z,39.35
2018-03-02T07:50:24.387Z,40.03
2018-03-02T07:52:52.993Z,38.83
2018-03-02T07:55:30.719Z,40.25
2018-03-02T07:57:58.175Z,40.05
2018-03-02T08:00:25.634Z,39.28
2018-03-02T08:02:53.107Z,39.20
2018-03-02T08:05:20.565Z,39.85
2018-03-02T08:07:48.043Z,34.97
2018-03-02T08:10:15.513Z,38.83
2018-03-02T08:12:42.963Z,38.63
2018-03-02T08:15:10.428Z,38.08
2018-03-02T08:17:37.899Z,38.45
2018-03-02T08:20:05.345Z,38.05
2018-03-02T08:22:32.799Z,39.38
2018-03-02T08:25:00.256Z,38.03
2018-03-02T08:27:27.744Z,40.20
2018-03-02T08:29:55.978Z,41.97
2018-03-02T08:32:23.427Z,41.28
2018-03-02T08:34:50.868Z,41.17
2018-03-02T08:37:18.329Z,40.90
2018-03-02T08:39:45.795Z,39.88
2018-03-02T08:42:13.262Z,38.63
2018-03-02T08:44:40.707Z,39.28
2018-03-02T08:47:08.213Z,38.92
2018-03-02T08:49:35.659Z,38.15
2018-03-02T08:52:03.101Z,41.28
2018-03-02T08:54:30.563Z,40.75
2018-03-02T08:56:58.019Z,38.22
2018-03-02T08:59:25.477Z,43.22
2018-03-02T09:01:52.937Z,39.03
2018-03-02T09:04:20.436Z,41.33
2018-03-02T09:06:54.242Z,43.33
2018-03-02T09:09:21.739Z,39.47
2018-03-02T09:11:49.189Z,39.88
2018-03-02T09:14:16.636Z,43.60
2018-03-02T09:16:44.080Z,42.30
2018-03-02T09:19:11.522Z,42.67
2018-03-02T09:21:39.731Z,38.40
2018-03-02T09:24:07.181Z,39.67
2018-03-02T09:26:34.647Z,43.25
2018-03-02T09:29:02.119Z,39.95
2018-03-02T09:31:29.581Z,41.88
2018-03-02T09:33:57.634Z,40.03
2018-03-02T09:36:25.941Z,41.37
2018-03-02T09:38:53.779Z,40.95
2018-03-02T09:41:21.265Z,41.95
2018-03-02T09:43:48.709Z,38.95
2018-03-02T09:46:16.187Z,41.45
2018-03-02T09:48:43.629Z,38.40
2018-03-02T09:51:11.581Z,41.17
2018-03-02T09:53:39.041Z,40.35
2018-03-02T09:56:06.647Z,42.17
2018-03-02T09:58:34.123Z,39.63
2018-03-02T10:01:01.596Z,41.25
2018-03-02T10:03:29.038Z,43.28
2018-03-02T10:05:56.512Z,42.70
2018-03-02T10:08:23.986Z,41.90
2018-03-02T10:10:51.436Z,41.20
2018-03-02T10:13:18.896Z,43.90
2018-03-02T10:15:46.340Z,41.95
2018-03-02T10:18:13.792Z,39.42
2018-03-02T10:20:41.253Z,42.00
2018-03-02T10:23:08.736Z,40.05
2018-03-02T10:25:36.192Z,42.83
2018-03-02T10:28:03.647Z,40.15
2018-03-02T10:30:31.102Z,40.97
2018-03-02T10:32:58.551Z,41.08
2018-03-02T10:35:25.996Z,40.60
2018-03-02T10:37:53.440Z,42.87
2018-03-02T10:40:20.887Z,41.43
2018-03-02T10:42:49.322Z,39.80
2018-03-02T10:45:16.775Z,43.77
2018-03-02T10:47:44.236Z,42.47
2018-03-02T10:50:11.735Z,42.40
2018-03-02T10:52:39.169Z,42.63
2018-03-02T10:55:06.621Z,42.53
2018-03-02T10:57:34.067Z,43.43
2018-03-02T11:00:01.492Z,40.37
2018-03-02T11:02:28.949Z,42.87
2018-03-02T11:05:02.129Z,42.87
2018-03-02T11:07:29.601Z,44.23
2018-03-02T11:09:57.057Z,48.00
2018-03-02T11:12:24.528Z,48.33
2018-03-02T11:14:51.983Z,49.13
2018-03-02T11:17:19.450Z,47.07
2018-03-02T11:19:46.888Z,48.77
2018-03-02T11:22:14.377Z,45.73
2018-03-02T11:24:42.415Z,43.90
2018-03-02T11:27:09.851Z,46.93
2018-03-02T11:29:37.300Z,47.07
2018-03-02T11:32:04.740Z,45.33
2018-03-02T11:34:32.944Z,43.90
2018-03-02T11:37:00.439Z,41.97
2018-03-02T11:39:27.826Z,43.70
2018-03-02T11:41:56.044Z,43.17
2018-03-02T11:44:23.596Z,44.60
2018-03-02T11:46:51.027Z,42.57
2018-03-02T11:49:18.456Z,41.90
2018-03-02T11:51:45.904Z,41.97
2018-03-02T11:54:13.351Z,40.10
2018-03-02T11:56:40.839Z,43.57
2018-03-02T11:59:09.069Z,42.13
2018-03-02T12:01:36.511Z,41.80
2018-03-02T12:04:04.008Z,43.37
2018-03-02T12:06:31.475Z,41.63
2018-03-02T12:08:58.912Z,44.33
2018-03-02T12:11:26.351Z,41.33
2018-03-02T12:13:53.814Z,40.47
2018-03-02T12:16:21.260Z,40.40
2018-03-02T12:18:48.718Z,42.00
2018-03-02T12:21:16.169Z,39.90
2018-03-02T12:23:43.620Z,40.83
2018-03-02T12:26:11.068Z,40.87
2018-03-02T12:28:38.560Z,39.93
2018-03-02T12:31:06.034Z,40.90
2018-03-02T12:33:33.504Z,40.23
2018-03-02T12:36:00.963Z,40.47
2018-03-02T12:38:28.417Z,41.60
2018-03-02T12:40:55.859Z,38.60
2018-03-02T12:43:23.310Z,39.23
2018-03-02T12:45:50.751Z,39.17
2018-03-02T12:48:18.200Z,42.30
2018-03-02T12:50:45.633Z,39.67
2018-03-02T12:53:13.092Z,42.88
2018-03-02T12:55:40.581Z,40.17
2018-03-02T12:58:08.008Z,40.03
2018-03-02T13:00:35.570Z,39.57
2018-03-02T13:03:02.953Z,40.57
2018-03-02T13:05:30.415Z,42.90
2018-03-02T13:07:57.844Z,39.30
2018-03-02T13:10:25.297Z,41.37
2018-03-02T13:12:52.766Z,41.83
2018-03-02T13:15:20.200Z,40.90
2018-03-02T13:17:47.680Z,42.63
2018-03-02T13:20:15.107Z,42.77
2018-03-02T13:22:42.537Z,39.40
2018-03-02T13:25:09.991Z,40.27
2018-03-02T13:27:49.127Z,41.27
2018-03-02T13:30:17.341Z,42.33
2018-03-02T13:32:51.384Z,43.27
2018-03-02T13:35:18.843Z,39.80
2018-03-02T13:37:46.591Z,41.73
2018-03-02T13:40:25.944Z,42.43
2018-03-02T13:42:53.416Z,41.73
2018-03-02T13:45:20.845Z,40.73
2018-03-02T13:50:59.289Z,43.80
2018-03-02T13:53:26.735Z,42.30
2018-03-02T13:55:54.232Z,40.43
2018-03-02T13:58:21.675Z,42.40
2018-03-02T14:00:49.135Z,41.30
2018-03-02T14:03:28.329Z,45.53
2018-03-02T14:05:55.756Z,47.13
2018-03-02T14:08:23.229Z,49.87
2018-03-02T14:10:50.863Z,47.80
2018-03-02T14:13:18.308Z,47.93
2018-03-02T14:15:45.756Z,49.47
2018-03-02T14:18:13.218Z,51.93
2018-03-02T14:20:40.661Z,49.33
2018-03-02T14:23:08.094Z,55.90
2018-03-02T14:25:36.461Z,51.77
2018-03-02T14:28:03.911Z,52.10
2018-03-02T14:30:31.665Z,41.30
2018-03-02T14:32:59.229Z,44.33
2018-03-02T14:35:26.667Z,40.77
2018-03-02T14:37:54.866Z,40.23
2018-03-02T14:40:22.348Z,42.43
2018-03-02T14:42:49.817Z,42.13
2018-03-02T14:45:17.259Z,40.33
2018-03-02T14:47:44.727Z,37.70
2018-03-02T14:50:12.167Z,39.10
2018-03-02T14:52:39.618Z,38.93
2018-03-02T14:55:07.280Z,39.30
2018-03-02T14:57:34.942Z,42.10
2018-03-02T15:00:02.384Z,38.37
2018-03-02T15:02:29.892Z,38.60
2018-03-02T15:04:57.348Z,42.10
2018-03-02T15:07:24.825Z,39.47
2018-03-02T15:09:52.299Z,38.37
2018-03-02T15:12:19.733Z,40.50
2018-03-02T15:14:47.178Z,40.70
2018-03-02T15:17:14.651Z,42.03
2018-03-02T15:19:42.103Z,39.70
2018-03-02T15:22:10.335Z,42.35
2018-03-02T15:24:37.800Z,38.47
2018-03-02T15:27:05.347Z,39.83
2018-03-02T15:29:32.767Z,40.17
2018-03-02T15:32:00.227Z,41.15
2018-03-02T15:34:27.684Z,40.85
2018-03-02T15:36:55.122Z,39.13
2018-03-02T15:39:23.337Z,41.80
2018-03-02T15:41:50.778Z,40.45
2018-03-02T15:44:18.222Z,41.42
2018-03-02T15:46:45.665Z,43.30
2018-03-02T15:49:13.133Z,42.00
2018-03-02T15:51:41.340Z,41.55
2018-03-02T15:54:08.915Z,43.33
2018-03-02T15:56:36.393Z,41.42
2018-03-02T15:59:03.884Z,41.90
2018-03-02T16:01:31.448Z,41.37
2018-03-02T16:03:58.886Z,39.78
2018-03-02T16:06:26.354Z,44.00
2018-03-02T16:08:53.799Z,41.28
2018-03-02T16:11:21.235Z,43.10
2018-03-02T16:13:48.697Z,41.92
2018-03-02T16:16:16.143Z,44.20
2018-03-02T16:18:43.611Z,44.60
2018-03-02T16:21:11.042Z,43.30
2018-03-02T16:23:38.673Z,42.90
2018-03-02T16:26:06.876Z,41.20
2018-03-02T16:28:45.562Z,44.88
2018-03-02T16:31:13.786Z,41.70
2018-03-02T16:33:41.205Z,42.45
2018-03-02T16:36:08.635Z,43.05
2018-03-02T16:38:36.966Z,41.47
2018-03-02T16:41:04.399Z,44.05
2018-03-02T16:43:32.181Z,43.30
2018-03-02T16:45:59.706Z,41.83
2018-03-02T16:48:27.168Z,43.70
2018-03-02T16:50:55.246Z,42.40
2018-03-02T16:53:22.687Z,41.78
2018-03-02T16:55:50.203Z,42.90
2018-03-02T16:58:17.639Z,46.15
2018-03-02T17:00:45.312Z,45.78
2018-03-02T17:03:12.759Z,41.00
2018-03-02T17:05:40.221Z,42.55
2018-03-02T17:08:07.849Z,44.45
2018-03-02T17:10:35.880Z,43.45
2018-03-02T17:13:03.339Z,45.10
2018-03-02T17:15:30.776Z,43.92
2018-03-02T17:17:58.228Z,45.72
2018-03-02T17:20:25.660Z,45.85
2018-03-02T17:22:53.103Z,44.17
2018-03-02T17:25:20.537Z,43.72
2018-03-02T17:27:48.987Z,43.72
2018-03-02T17:30:16.493Z,43.53
2018-03-02T17:32:43.933Z,44.22
2018-03-02T17:35:11.392Z,42.55
2018-03-02T17:37:39.587Z,42.80
2018-03-02T17:40:07.040Z,44.65
2018-03-02T17:42:34.507Z,43.50
2018-03-02T17:45:01.951Z,46.67
2018-03-02T17:47:29.547Z,45.33
2018-03-02T17:49:57.020Z,42.60
2018-03-02T17:52:25.435Z,41.85
2018-03-02T17:54:52.890Z,42.35
2018-03-02T17:57:20.331Z,46.08
2018-03-02T17:59:47.785Z,44.50
2018-03-02T18:02:15.253Z,46.80
2018-03-02T18:04:42.727Z,45.58
2018-03-02T18:07:10.164Z,47.47
2018-03-02T18:09:37.615Z,51.42
2018-03-02T18:12:05.064Z,47.80
2018-03-02T18:14:32.559Z,49.97
2018-03-02T18:17:00.008Z,49.70
2018-03-02T18:19:27.480Z,48.85
2018-03-02T18:21:54.921Z,51.80
2018-03-02T18:24:23.145Z,51.40
2018-03-02T18:26:50.571Z,50.50
2018-03-02T18:29:18.027Z,49.47
2018-03-02T18:31:45.470Z,49.22
2018-03-02T18:34:12.899Z,48.28
2018-03-02T18:36:40.339Z,52.20
2018-03-02T18:39:07.814Z,46.55
2018-03-02T18:41:35.246Z,46.80
2018-03-02T18:44:02.682Z,47.85
2018-03-02T18:46:30.151Z,53.47
2018-03-02T18:48:57.605Z,52.17
2018-03-02T18:51:25.077Z,46.70
2018-03-02T18:53:52.487Z,49.45
2018-03-02T18:56:19.938Z,51.03
2018-03-02T18:58:47.423Z,50.70
2018-03-02T19:01:14.859Z,51.15
2018-03-02T19:03:42.305Z,48.22
2018-03-02T19:06:10.525Z,51.37
2018-03-02T19:08:37.991Z,48.95
2018-03-02T19:11:05.441Z,49.67
2018-03-02T19:13:32.877Z,49.55
2018-03-02T19:16:00.352Z,53.00
2018-03-02T19:18:27.789Z,50.40
2018-03-02T19:20:55.477Z,52.13
2018-03-02T19:23:22.932Z,48.70
2018-03-02T19:25:50.386Z,53.03
2018-03-02T19:28:17.859Z,53.83
2018-03-02T19:30:45.418Z,52.25
2018-03-02T19:33:12.943Z,54.70
2018-03-02T19:35:40.474Z,49.10
2018-03-02T19:38:08.013Z,50.72
2018-03-02T19:40:35.561Z,50.78
2018-03-02T19:43:03.253Z,51.33
2018-03-02T19:45:30.799Z,49.85
2018-03-02T19:47:58.339Z,52.88
2018-03-02T19:50:25.886Z,52.45
2018-03-02T19:52:53.403Z,49.40
2018-03-02T19:55:20.912Z,52.03
2018-03-02T19:57:49.188Z,53.70
2018-03-02T20:00:16.714Z,50.58
2018-03-02T20:02:44.248Z,52.92
2018-03-02T20:05:12.515Z,54.08
2018-03-02T20:07:39.987Z,56.85
2018-03-02T20:10:07.448Z,55.55
2018-03-02T20:12:34.949Z,55.85
2018-03-02T20:15:02.432Z,54.85
2018-03-02T20:17:29.923Z,53.55
2018-03-02T20:19:58.163Z,56.78
2018-03-02T20:22:25.620Z,54.97
2018-03-02T20:24:53.081Z,58.70
2018-03-02T20:27:20.561Z,58.20
2018-03-02T20:29:48.008Z,54.95
2018-03-02T20:32:15.472Z,56.72
2018-03-02T20:34:42.939Z,55.90
2018-03-02T20:37:10.630Z,55.05
2018-03-02T20:39:38.048Z,54.00
2018-03-02T20:42:05.544Z,52.80
2018-03-02T20:44:32.955Z,52.85
2018-03-02T20:47:00.400Z,56.10
2018-03-02T20:49:27.870Z,52.58
2018-03-02T20:51:55.323Z,56.88
2018-03-02T20:54:22.755Z,54.35
2018-03-02T20:56:50.204Z,57.65
2018-03-02T20:59:17.645Z,54.95
2018-03-02T21:01:45.120Z,56.47
2018-03-02T21:04:12.608Z,55.22
2018-03-02T21:06:40.028Z,51.60
2018-03-02T21:09:07.493Z,53.90
2018-03-02T21:11:35.008Z,56.03
2018-03-02T21:14:02.459Z,55.83
2018-03-02T21:16:29.927Z,55.47
2018-03-02T21:18:57.356Z,57.10
2018-03-02T21:21:24.819Z,55.33
2018-03-02T21:23:52.248Z,53.70
2018-03-02T21:26:19.725Z,56.47
2018-03-02T21:28:47.183Z,51.83
2018-03-02T21:31:14.636Z,58.72
2018-03-02T21:33:42.143Z,58.22
2018-03-02T21:36:09.579Z,53.30
2018-03-02T21:38:37.029Z,51.70
2018-03-02T21:41:04.458Z,56.47
2018-03-02T21:43:31.902Z,57.03
2018-03-02T21:45:59.339Z,57.83
2018-03-02T21:48:26.788Z,53.75
2018-03-02T21:50:54.231Z,55.33
2018-03-02T21:53:21.706Z,56.85
2018-03-02T21:55:49.221Z,59.22
2018-03-02T21:58:16.664Z,57.55
2018-03-02T22:00:44.100Z,55.65
2018-03-02T22:03:11.551Z,60.38
2018-03-02T22:05:39.008Z,56.28
2018-03-02T22:08:06.444Z,59.33
2018-03-02T22:10:33.909Z,58.15
2018-03-02T22:13:01.353Z,57.08
2018-03-02T22:15:28.796Z,57.13
2018-03-02T22:17:56.249Z,58.15
2018-03-02T22:20:23.693Z,56.88
2018-03-02T22:22:51.919Z,60.25
2018-03-02T22:25:19.356Z,57.65
2018-03-02T22:27:46.812Z,60.28
2018-03-02T22:30:14.256Z,59.00
2018-03-02T22:32:41.727Z,54.65
2018-03-02T22:35:09.161Z,58.50
2018-03-02T22:37:36.851Z,55.90
2018-03-02T22:40:04.409Z,58.75
2018-03-02T22:42:31.847Z,62.38
2018-03-02T22:44:59.303Z,58.80
2018-03-02T22:47:26.757Z,60.30
2018-03-02T22:49:54.213Z,61.30
2018-03-02T22:52:21.651Z,58.80
2018-03-02T22:54:49.118Z,54.95
2018-03-02T22:57:17.337Z,55.72
2018-03-02T22:59:44.778Z,56.53
2018-03-02T23:02:12.423Z,60.30
2018-03-02T23:04:39.880Z,58.87
2018-03-02T23:07:07.340Z,55.33
2018-03-02T23:09:34.790Z,56.40
2018-03-02T23:12:02.235Z,59.53
2018-03-02T23:14:29.698Z,64.15
2018-03-02T23:16:57.115Z,59.97
2018-03-02T23:19:24.586Z,62.40
2018-03-02T23:21:52.019Z,63.63
2018-03-02T23:24:19.535Z,60.92
2018-03-02T23:26:46.970Z,60.40
2018-03-02T23:29:14.428Z,60.05
2018-03-02T23:31:41.872Z,56.85
2018-03-02T23:34:09.334Z,56.40
2018-03-02T23:36:36.767Z,58.85
2018-03-02T23:39:04.229Z,58.05
2018-03-02T23:41:31.660Z,61.30
2018-03-02T23:43:59.133Z,58.65
2018-03-02T23:46:26.589Z,61.55
2018-03-02T23:48:54.026Z,57.85
2018-03-02T23:51:21.483Z,59.13
2018-03-02T23:53:48.940Z,59.08
2018-03-02T23:56:16.411Z,58.67
2018-03-02T23:58:43.863Z,64.25
